Česky Dansk Deutsch English Español Suomi Français Magyar Italiano Nederlands norsk Polski Português svenska Türkçe

 

Weather

Nimes / Garons (France)

12:30, 5 August 2016 (GMT)

NWNNE
WE
SWSSE
Home            
Nimes / Garons Nimes / Courbessac Montpellier Istres Orange Salon Marseille / Marignane Aix Les Milles Montelimar Beziers / Vias Mende / Brenoux St-Auban-Sur-Durance Le Puy Hyeres Cassagnes-Begonhes Le Luc Perpignan Rodez Carcassonne Albi St-Raphael Grenoble / St. Geoirs St-Etienne Boutheon

To put a weather button on your web site or blog, copy the code below and paste it into your page . The first box contains HTML code, the second UBB code.


Add to Google

Details

Wind speed:5 bf, 18 kn, 9.3 m/s, 20.7 miles/h, 33.3 km/h
Wind direction:NW, 320° - NNE, 020°
Visibility:Greater than 10000 m, 10 km, 32800 ft, 6.2 miles
Clouds:CAVOC
Temperature:27°C, 81°F
Feels like:27°C, 80°F
Dew-point:9°C, 48°F
Atmospheric pressure:1018 hPa, 763.6 mmHg, 30.06 inHg, 1.005 atm
Relative humidity:32.2 %
METAR:LFTW 051230Z AUTO 36018KT 320V020 CAVOK 27/09 Q1018 TEMPO 36020G30KT

Shortcuts

An up-to-date overview of weather conditions all over the world. Add locations with the plus (+) sign. These shortcuts can be added to Google.

Lid van de Technetium groep

website free tracking
StatCounter NetStat W3C Validator

02-10-2022 05:49:02
astro.technetium.be money.technetium.be phote.technetium.be tafeltennistafel.technetium.be www.ligfiets.net